sensor_id;sensor_type;location;lat;lon;timestamp;pressure;altitude;pressure_sealevel;temperature;humidity
44144;BME280;68165;51.920;4.492;2023-03-14T00:00:16;67385.78;;;13.76;86.76
44144;BME280;68165;51.920;4.492;2023-03-14T00:02:41;67378.69;;;13.72;87.16
44144;BME280;68165;51.920;4.492;2023-03-14T00:05:08;67388.59;;;13.78;87.21
44144;BME280;68165;51.920;4.492;2023-03-14T00:07:38;67375.25;;;13.76;87.44
44144;BME280;68165;51.920;4.492;2023-03-14T00:10:08;67373.81;;;13.70;87.66
44144;BME280;68165;51.920;4.492;2023-03-14T00:12:34;67376.03;;;13.72;87.85
44144;BME280;68165;51.920;4.492;2023-03-14T00:15:00;67364.88;;;13.62;88.18
44144;BME280;68165;51.920;4.492;2023-03-14T00:17:27;67362.63;;;13.60;88.93
44144;BME280;68165;51.920;4.492;2023-03-14T00:19:53;67363.25;;;13.53;89.40
44144;BME280;68165;51.920;4.492;2023-03-14T00:22:19;67345.84;;;13.44;90.70
44144;BME280;68165;51.920;4.492;2023-03-14T00:24:44;67340.25;;;13.39;91.24
44144;BME280;68165;51.920;4.492;2023-03-14T00:27:10;67337.84;;;13.35;91.99
44144;BME280;68165;51.920;4.492;2023-03-14T00:29:35;67333.56;;;13.33;92.73
44144;BME280;68165;51.920;4.492;2023-03-14T00:32:00;67331.31;;;13.31;92.81
44144;BME280;68165;51.920;4.492;2023-03-14T00:34:30;67341.78;;;13.38;92.96
44144;BME280;68165;51.920;4.492;2023-03-14T00:36:56;67329.63;;;13.30;93.39
44144;BME280;68165;51.920;4.492;2023-03-14T00:39:22;67333.38;;;13.31;93.53
44144;BME280;68165;51.920;4.492;2023-03-14T00:41:47;67327.97;;;13.28;94.31
44144;BME280;68165;51.920;4.492;2023-03-14T00:44:13;67315.25;;;13.19;94.94
44144;BME280;68165;51.920;4.492;2023-03-14T00:46:38;67317.34;;;13.19;95.24
44144;BME280;68165;51.920;4.492;2023-03-14T00:49:04;67323.47;;;13.24;95.31
44144;BME280;68165;51.920;4.492;2023-03-14T00:51:29;67322.22;;;13.21;95.75
44144;BME280;68165;51.920;4.492;2023-03-14T00:53:56;67321.81;;;13.23;96.16
44144;BME280;68165;51.920;4.492;2023-03-14T00:56:21;67317.34;;;13.19;96.26
44144;BME280;68165;51.920;4.492;2023-03-14T00:58:47;67310.06;;;13.12;97.13
44144;BME280;68165;51.920;4.492;2023-03-14T01:01:16;67312.13;;;13.12;97.23
44144;BME280;68165;51.920;4.492;2023-03-14T01:03:42;67306.69;;;13.09;97.59
44144;BME280;68165;51.920;4.492;2023-03-14T01:06:09;67305.56;;;13.08;97.75
44144;BME280;68165;51.920;4.492;2023-03-14T01:08:35;67296.06;;;12.99;97.92
44144;BME280;68165;51.920;4.492;2023-03-14T01:11:12;67293.09;;;12.94;98.50
44144;BME280;68165;51.920;4.492;2023-03-14T01:13:38;67294.22;;;12.95;98.50
44144;BME280;68165;51.920;4.492;2023-03-14T01:16:06;67298.31;;;13.01;98.54
44144;BME280;68165;51.920;4.492;2023-03-14T01:18:33;67288.81;;;12.93;98.63
44144;BME280;68165;51.920;4.492;2023-03-14T01:21:00;67296.31;;;12.95;98.84
44144;BME280;68165;51.920;4.492;2023-03-14T01:23:25;67295.19;;;12.94;98.88
44144;BME280;68165;51.920;4.492;2023-03-14T01:25:52;67290.47;;;12.94;98.81
44144;BME280;68165;51.920;4.492;2023-03-14T01:28:17;67289.91;;;12.94;98.92
44144;BME280;68165;51.920;4.492;2023-03-14T01:30:43;67288.81;;;12.93;98.78
44144;BME280;68165;51.920;4.492;2023-03-14T01:33:08;67287.69;;;12.92;98.54
44144;BME280;68165;51.920;4.492;2023-03-14T01:35:34;67294.22;;;12.95;98.21
44144;BME280;68165;51.920;4.492;2023-03-14T01:37:59;67282.25;;;12.89;97.85
44144;BME280;68165;51.920;4.492;2023-03-14T01:40:24;67289.91;;;12.94;98.01
44144;BME280;68165;51.920;4.492;2023-03-14T01:42:58;67304.13;;;13.02;97.67
44144;BME280;68165;51.920;4.492;2023-03-14T01:51:22;67300.00;;;13.03;97.42
44144;BME280;68165;51.920;4.492;2023-03-14T01:53:50;67300.56;;;13.03;97.66
44144;BME280;68165;51.920;4.492;2023-03-14T01:56:18;67303.19;;;13.03;97.65
44144;BME280;68165;51.920;4.492;2023-03-14T01:58:46;67300.38;;;13.01;97.81
44144;BME280;68165;51.920;4.492;2023-03-14T02:01:19;67293.66;;;12.95;98.29
44144;BME280;68165;51.920;4.492;2023-03-14T02:03:50;67294.97;;;12.98;97.89
44144;BME280;68165;51.920;4.492;2023-03-14T02:06:19;67297.59;;;12.98;97.92
44144;BME280;68165;51.920;4.492;2023-03-14T02:08:47;67290.88;;;12.92;98.30
44144;BME280;68165;51.920;4.492;2023-03-14T02:11:14;67291.44;;;12.93;98.25
44144;BME280;68165;51.920;4.492;2023-03-14T02:13:40;67287.69;;;12.92;98.17
44144;BME280;68165;51.920;4.492;2023-03-14T02:16:06;67289.91;;;12.94;97.86
44144;BME280;68165;51.920;4.492;2023-03-14T02:18:33;67290.16;;;12.89;98.17
44144;BME280;68165;51.920;4.492;2023-03-14T02:21:53;67283.00;;;12.92;97.94
44144;BME280;68165;51.920;4.492;2023-03-14T02:26:32;67282.81;;;12.90;98.15
44144;BME280;68165;51.920;4.492;2023-03-14T02:28:59;67283.22;;;12.88;98.15
44144;BME280;68165;51.920;4.492;2023-03-14T02:31:25;67277.63;;;12.83;98.28
44144;BME280;68165;51.920;4.492;2023-03-14T02:33:51;67279.69;;;12.82;98.59
44144;BME280;68165;51.920;4.492;2023-03-14T02:36:17;67285.13;;;12.85;98.54
44144;BME280;68165;51.920;4.492;2023-03-14T02:39:00;67284.75;;;12.87;98.71
44144;BME280;68165;51.920;4.492;2023-03-14T02:41:30;67284.34;;;12.89;98.86
44144;BME280;68165;51.920;4.492;2023-03-14T02:43:56;67285.84;;;12.88;99.03
44144;BME280;68165;51.920;4.492;2023-03-14T02:46:21;67288.09;;;12.90;99.09
44144;BME280;68165;51.920;4.492;2023-03-14T02:51:16;67273.72;;;12.79;99.44
44144;BME280;68165;51.920;4.492;2023-03-14T02:53:41;67269.81;;;12.76;99.72
44144;BME280;68165;51.920;4.492;2023-03-14T02:56:09;67274.09;;;12.77;99.64
44144;BME280;68165;51.920;4.492;2023-03-14T02:58:35;67268.13;;;12.74;99.94
44144;BME280;68165;51.920;4.492;2023-03-14T03:01:01;67267.00;;;12.73;99.96
44144;BME280;68165;51.920;4.492;2023-03-14T03:03:27;67274.09;;;12.77;99.92
44144;BME280;68165;51.920;4.492;2023-03-14T03:05:55;67279.53;;;12.80;100.00
44144;BME280;68165;51.920;4.492;2023-03-14T03:08:22;67268.13;;;12.74;99.79
44144;BME280;68165;51.920;4.492;2023-03-14T03:10:50;67274.28;;;12.80;99.99
44144;BME280;68165;51.920;4.492;2023-03-14T03:13:15;67269.81;;;12.76;99.65
44144;BME280;68165;51.920;4.492;2023-03-14T03:15:41;67276.75;;;12.77;99.84
44144;BME280;68165;51.920;4.492;2023-03-14T03:18:06;67278.03;;;12.81;99.63
44144;BME280;68165;51.920;4.492;2023-03-14T03:20:32;67272.44;;;12.76;99.67
44144;BME280;68165;51.920;4.492;2023-03-14T03:22:59;67281.19;;;12.81;99.50
44144;BME280;68165;51.920;4.492;2023-03-14T03:25:24;67275.22;;;12.78;99.22
44144;BME280;68165;51.920;4.492;2023-03-14T03:27:50;67281.56;;;12.86;99.22
44144;BME280;68165;51.920;4.492;2023-03-14T03:30:16;67285.84;;;12.88;99.14
44144;BME280;68165;51.920;4.492;2023-03-14T03:32:41;67278.75;;;12.84;99.29
44144;BME280;68165;51.920;4.492;2023-03-14T03:35:07;67283.63;;;12.86;99.21
44144;BME280;68165;51.920;4.492;2023-03-14T03:37:33;67283.22;;;12.88;99.39
44144;BME280;68165;51.920;4.492;2023-03-14T03:39:59;67287.38;;;12.87;99.24
44144;BME280;68165;51.920;4.492;2023-03-14T03:42:27;67277.63;;;12.83;99.17
44144;BME280;68165;51.920;4.492;2023-03-14T03:44:52;67272.59;;;12.78;99.62
44144;BME280;68165;51.920;4.492;2023-03-14T03:47:18;67276.50;;;12.82;99.35
44144;BME280;68165;51.920;4.492;2023-03-14T03:49:43;67279.88;;;12.85;99.34
44144;BME280;68165;51.920;4.492;2023-03-14T03:52:08;67280.66;;;12.81;99.58
44144;BME280;68165;51.920;4.492;2023-03-14T03:54:34;67274.28;;;12.80;99.65
44144;BME280;68165;51.920;4.492;2023-03-14T03:57:00;67289.44;;;12.86;99.42
44144;BME280;68165;51.920;4.492;2023-03-14T03:59:25;67290.16;;;12.89;99.21
44144;BME280;68165;51.920;4.492;2023-03-14T04:01:50;67287.19;;;12.84;99.51
44144;BME280;68165;51.920;4.492;2023-03-14T04:04:16;67286.00;;;12.90;99.40
44144;BME280;68165;51.920;4.492;2023-03-14T04:06:41;67289.59;;;12.89;99.71
44144;BME280;68165;51.920;4.492;2023-03-14T04:09:08;67284.56;;;12.84;99.47
44144;BME280;68165;51.920;4.492;2023-03-14T04:11:33;67279.88;;;12.85;99.86
44144;BME280;68165;51.920;4.492;2023-03-14T04:13:59;67279.53;;;12.80;99.88
44144;BME280;68165;51.920;4.492;2023-03-14T04:16:25;67258.81;;;12.68;100.00
44144;BME280;68165;51.920;4.492;2023-03-14T04:18:51;67246.34;;;12.54;100.00
44144;BME280;68165;51.920;4.492;2023-03-14T04:21:17;67228.47;;;12.38;100.00
44144;BME280;68165;51.920;4.492;2023-03-14T04:23:43;67225.09;;;12.35;100.00
44144;BME280;68165;51.920;4.492;2023-03-14T04:26:09;67212.81;;;12.24;100.00
44144;BME280;68165;51.920;4.492;2023-03-14T04:28:34;67196.06;;;12.09;100.00
44144;BME280;68165;51.920;4.492;2023-03-14T04:31:17;67183.44;;;11.93;100.00
44144;BME280;68165;51.920;4.492;2023-03-14T04:33:43;67164.78;;;11.80;100.00
44144;BME280;68165;51.920;4.492;2023-03-14T04:36:09;67163.34;;;11.74;100.00
44144;BME280;68165;51.920;4.492;2023-03-14T04:38:34;67150.66;;;11.65;100.00
44144;BME280;68165;51.920;4.492;2023-03-14T04:41:01;67146.00;;;11.59;100.00
44144;BME280;68165;51.920;4.492;2023-03-14T04:43:27;67135.00;;;11.51;100.00
44144;BME280;68165;51.920;4.492;2023-03-14T04:45:56;67136.88;;;11.55;100.00
44144;BME280;68165;51.920;4.492;2023-03-14T04:48:22;67135.00;;;11.51;100.00
44144;BME280;68165;51.920;4.492;2023-03-14T04:50:48;67124.75;;;11.46;100.00
44144;BME280;68165;51.920;4.492;2023-03-14T04:53:15;67121.22;;;11.41;100.00
44144;BME280;68165;51.920;4.492;2023-03-14T04:55:40;67129.28;;;11.43;100.00
44144;BME280;68165;51.920;4.492;2023-03-14T04:58:06;67123.47;;;11.43;100.00
44144;BME280;68165;51.920;4.492;2023-03-14T05:00:31;67124.03;;;11.43;100.00
44144;BME280;68165;51.920;4.492;2023-03-14T05:02:57;67128.31;;;11.45;100.00
44144;BME280;68165;51.920;4.492;2023-03-14T05:05:22;67127.19;;;11.44;100.00
44144;BME280;68165;51.920;4.492;2023-03-14T05:07:48;67124.56;;;11.44;100.00
44144;BME280;68165;51.920;4.492;2023-03-14T05:10:13;67120.66;;;11.40;100.00
44144;BME280;68165;51.920;4.492;2023-03-14T05:12:39;67122.91;;;11.42;100.00
44144;BME280;68165;51.920;4.492;2023-03-14T05:15:04;67120.09;;;11.40;100.00
44144;BME280;68165;51.920;4.492;2023-03-14T05:17:32;67116.59;;;11.34;100.00
44144;BME280;68165;51.920;4.492;2023-03-14T05:19:57;67113.97;;;11.34;100.00
44144;BME280;68165;51.920;4.492;2023-03-14T05:22:25;67113.97;;;11.34;100.00
44144;BME280;68165;51.920;4.492;2023-03-14T05:24:51;67116.59;;;11.34;100.00
44144;BME280;68165;51.920;4.492;2023-03-14T05:27:16;67116.22;;;11.36;100.00
44144;BME280;68165;51.920;4.492;2023-03-14T05:29:42;67122.91;;;11.42;100.00
44144;BME280;68165;51.920;4.492;2023-03-14T05:32:07;67123.53;;;11.36;100.00
44144;BME280;68165;51.920;4.492;2023-03-14T05:34:33;67111.72;;;11.32;100.00
44144;BME280;68165;51.920;4.492;2023-03-14T05:36:58;67107.84;;;11.29;100.00
44144;BME280;68165;51.920;4.492;2023-03-14T05:39:24;67111.56;;;11.30;100.00
44144;BME280;68165;51.920;4.492;2023-03-14T05:41:49;67111.00;;;11.29;100.00
44144;BME280;68165;51.920;4.492;2023-03-14T05:44:15;67092.75;;;11.15;100.00
44144;BME280;68165;51.920;4.492;2023-03-14T05:46:41;67086.84;;;11.05;100.00
44144;BME280;68165;51.920;4.492;2023-03-14T05:49:06;67076.97;;;10.98;100.00
44144;BME280;68165;51.920;4.492;2023-03-14T05:51:31;67068.03;;;10.90;100.00
44144;BME280;68165;51.920;4.492;2023-03-14T05:53:57;67059.69;;;10.83;100.00
44144;BME280;68165;51.920;4.492;2023-03-14T05:56:22;67046.84;;;10.71;100.00
44144;BME280;68165;51.920;4.492;2023-03-14T05:58:47;67031.97;;;10.60;100.00
44144;BME280;68165;51.920;4.492;2023-03-14T06:01:13;67030.50;;;10.54;100.00
44144;BME280;68165;51.920;4.492;2023-03-14T06:03:39;67020.78;;;10.50;100.00
44144;BME280;68165;51.920;4.492;2023-03-14T06:06:05;67019.66;;;10.49;100.00
44144;BME280;68165;51.920;4.492;2023-03-14T06:08:30;67014.66;;;10.44;100.00
44144;BME280;68165;51.920;4.492;2023-03-14T06:10:56;67009.88;;;10.35;100.00
44144;BME280;68165;51.920;4.492;2023-03-14T06:13:22;67002.94;;;10.34;100.00
44144;BME280;68165;51.920;4.492;2023-03-14T06:15:50;67012.25;;;10.40;100.00
44144;BME280;68165;51.920;4.492;2023-03-14T06:18:15;67001.13;;;10.30;100.00
44144;BME280;68165;51.920;4.492;2023-03-14T06:20:40;67007.41;;;10.38;100.00
44144;BME280;68165;51.920;4.492;2023-03-14T06:23:06;67007.06;;;10.33;100.00
44144;BME280;68165;51.920;4.492;2023-03-14T06:25:33;66992.94;;;10.25;100.00
44144;BME280;68165;51.920;4.492;2023-03-14T06:27:59;67012.97;;;10.43;100.00
44144;BME280;68165;51.920;4.492;2023-03-14T06:30:49;67017.44;;;10.47;100.00
44144;BME280;68165;51.920;4.492;2023-03-14T06:33:14;66994.03;;;10.26;100.00
44144;BME280;68165;51.920;4.492;2023-03-14T06:35:40;66996.63;;;10.26;100.00
44144;BME280;68165;51.920;4.492;2023-03-14T06:38:05;66984.00;;;10.16;100.00
44144;BME280;68165;51.920;4.492;2023-03-14T06:40:30;66978.22;;;10.09;100.00
44144;BME280;68165;51.920;4.492;2023-03-14T06:42:56;66967.63;;;9.99;100.00
44144;BME280;68165;51.920;4.492;2023-03-14T06:45:21;66957.94;;;9.95;100.00
44144;BME280;68165;51.920;4.492;2023-03-14T06:47:46;66950.53;;;9.86;100.00
44144;BME280;68165;51.920;4.492;2023-03-14T06:50:12;66945.72;;;9.77;100.00
44144;BME280;68165;51.920;4.492;2023-03-14T06:52:37;66937.53;;;9.72;100.00
44144;BME280;68165;51.920;4.492;2023-03-14T06:55:07;66933.81;;;9.71;100.00
44144;BME280;68165;51.920;4.492;2023-03-14T06:57:32;66935.47;;;9.72;100.00
44144;BME280;68165;51.920;4.492;2023-03-14T06:59:57;66934.75;;;9.69;100.00
44144;BME280;68165;51.920;4.492;2023-03-14T07:02:23;66941.59;;;9.78;100.00
44144;BME280;68165;51.920;4.492;2023-03-14T07:04:48;66940.50;;;9.77;100.00
44144;BME280;68165;51.920;4.492;2023-03-14T07:07:14;66936.44;;;9.71;100.00
44144;BME280;68165;51.920;4.492;2023-03-14T07:09:39;66937.69;;;9.74;100.00
44144;BME280;68165;51.920;4.492;2023-03-14T07:12:05;66944.22;;;9.78;100.00
44144;BME280;68165;51.920;4.492;2023-03-14T07:14:30;66943.44;;;9.82;100.00
44144;BME280;68165;51.920;4.492;2023-03-14T07:16:56;66957.03;;;9.90;100.00
44144;BME280;68165;51.920;4.492;2023-03-14T07:19:21;66959.09;;;9.89;100.00
44144;BME280;68165;51.920;4.492;2023-03-14T07:21:46;66961.28;;;9.98;100.00
44144;BME280;68165;51.920;4.492;2023-03-14T07:24:12;66973.59;;;10.02;100.00
44144;BME280;68165;51.920;4.492;2023-03-14T07:26:38;66973.78;;;10.05;100.00
44144;BME280;68165;51.920;4.492;2023-03-14T07:29:03;66976.00;;;10.07;100.00
44144;BME280;68165;51.920;4.492;2023-03-14T07:31:29;66979.53;;;10.12;100.00
44144;BME280;68165;51.920;4.492;2023-03-14T07:33:54;66989.94;;;10.19;100.00
44144;BME280;68165;51.920;4.492;2023-03-14T07:36:20;66991.81;;;10.23;100.00
44144;BME280;68165;51.920;4.492;2023-03-14T07:38:46;66983.78;;;10.14;100.00
44144;BME280;68165;51.920;4.492;2023-03-14T07:41:15;66988.44;;;10.20;100.00
44144;BME280;68165;51.920;4.492;2023-03-14T07:43:41;66972.81;;;10.06;100.00
44144;BME280;68165;51.920;4.492;2023-03-14T07:46:06;66983.78;;;10.14;100.00
44144;BME280;68165;51.920;4.492;2023-03-14T07:48:32;66973.94;;;10.07;100.00
44144;BME280;68165;51.920;4.492;2023-03-14T07:50:58;66979.72;;;10.08;100.00
44144;BME280;68165;51.920;4.492;2023-03-14T07:53:24;66966.69;;;10.01;100.00
44144;BME280;68165;51.920;4.492;2023-03-14T07:55:53;66973.22;;;10.04;100.00
44144;BME280;68165;51.920;4.492;2023-03-14T07:58:19;66956.66;;;9.92;100.00
44144;BME280;68165;51.920;4.492;2023-03-14T08:00:47;66934.56;;;9.67;100.00
44144;BME280;68165;51.920;4.492;2023-03-14T08:03:12;66930.84;;;9.66;100.00
44144;BME280;68165;51.920;4.492;2023-03-14T08:05:39;66918.75;;;9.57;100.00
44144;BME280;68165;51.920;4.492;2023-03-14T08:08:05;66910.38;;;9.50;100.00
44144;BME280;68165;51.920;4.492;2023-03-14T08:10:31;66906.88;;;9.44;100.00
44144;BME280;68165;51.920;4.492;2023-03-14T08:12:58;66906.09;;;9.48;100.00
44144;BME280;68165;51.920;4.492;2023-03-14T08:15:25;66913.56;;;9.50;100.00
44144;BME280;68165;51.920;4.492;2023-03-14T08:17:52;66908.16;;;9.48;100.00
44144;BME280;68165;51.920;4.492;2023-03-14T08:20:23;66881.97;;;9.24;100.00
44144;BME280;68165;51.920;4.492;2023-03-14T08:22:49;66888.16;;;9.22;100.00
44144;BME280;68165;51.920;4.492;2023-03-14T08:25:15;66911.50;;;9.51;100.00
44144;BME280;68165;51.920;4.492;2023-03-14T08:27:40;66909.28;;;9.49;100.00
44144;BME280;68165;51.920;4.492;2023-03-14T08:30:09;66906.16;;;9.41;100.00
44144;BME280;68165;51.920;4.492;2023-03-14T08:32:35;66922.66;;;9.61;100.00
44144;BME280;68165;51.920;4.492;2023-03-14T08:35:01;66929.34;;;9.67;100.00
44144;BME280;68165;51.920;4.492;2023-03-14T08:37:26;66930.47;;;9.68;100.00
44144;BME280;68165;51.920;4.492;2023-03-14T08:39:53;66925.81;;;9.61;100.00
44144;BME280;68165;51.920;4.492;2023-03-14T08:42:19;66930.47;;;9.68;100.00
44144;BME280;68165;51.920;4.492;2023-03-14T08:44:44;66899.06;;;9.37;100.00
44144;BME280;68165;51.920;4.492;2023-03-14T08:47:10;66884.03;;;9.23;100.00
44144;BME280;68165;51.920;4.492;2023-03-14T08:49:35;66855.25;;;8.99;100.00
44144;BME280;68165;51.920;4.492;2023-03-14T08:52:02;66845.78;;;8.91;100.00
44144;BME280;68165;51.920;4.492;2023-03-14T08:54:28;66841.69;;;8.85;100.00
44144;BME280;68165;51.920;4.492;2023-03-14T08:56:54;66845.22;;;8.90;100.00
44144;BME280;68165;51.920;4.492;2023-03-14T08:59:19;66835.19;;;8.81;100.00
44144;BME280;68165;51.920;4.492;2023-03-14T09:01:45;66838.34;;;8.82;100.00
44144;BME280;68165;51.920;4.492;2023-03-14T09:04:10;66854.31;;;8.94;100.00
44144;BME280;68165;51.920;4.492;2023-03-14T09:06:36;66867.88;;;9.09;100.00
44144;BME280;68165;51.920;4.492;2023-03-14T09:09:01;66881.81;;;9.21;100.00
44144;BME280;68165;51.920;4.492;2023-03-14T09:11:27;66902.97;;;9.40;100.00
44144;BME280;68165;51.920;4.492;2023-03-14T09:13:52;66924.88;;;9.63;100.00
44144;BME280;68165;51.920;4.492;2023-03-14T09:16:18;66939.94;;;9.76;100.00
44144;BME280;68165;51.920;4.492;2023-03-14T09:18:43;66964.28;;;9.96;100.00
44144;BME280;68165;51.920;4.492;2023-03-14T09:21:09;66992.75;;;10.22;100.00
44144;BME280;68165;51.920;4.492;2023-03-14T09:23:34;67015.59;;;10.43;100.00
44144;BME280;68165;51.920;4.492;2023-03-14T09:26:00;67039.59;;;10.64;100.00
44144;BME280;68165;51.920;4.492;2023-03-14T09:28:26;67040.31;;;10.68;100.00
44144;BME280;68165;51.920;4.492;2023-03-14T09:30:52;67046.44;;;10.73;100.00
44144;BME280;68165;51.920;4.492;2023-03-14T09:33:17;67039.75;;;10.67;100.00
44144;BME280;68165;51.920;4.492;2023-03-14T09:35:43;67028.59;;;10.57;100.00
44144;BME280;68165;51.920;4.492;2023-03-14T09:38:09;67014.50;;;10.42;100.00
44144;BME280;68165;51.920;4.492;2023-03-14T09:40:36;67017.28;;;10.44;100.00
44144;BME280;68165;51.920;4.492;2023-03-14T09:43:02;67021.97;;;10.44;100.00
44144;BME280;68165;51.920;4.492;2023-03-14T09:45:29;66997.19;;;10.26;100.00
44144;BME280;68165;51.920;4.492;2023-03-14T09:47:57;66948.84;;;9.84;100.00
44144;BME280;68165;51.920;4.492;2023-03-14T09:50:23;66909.13;;;9.46;100.00
44144;BME280;68165;51.920;4.492;2023-03-14T09:52:52;66883.25;;;9.27;100.00
44144;BME280;68165;51.920;4.492;2023-03-14T09:55:22;66883.88;;;9.21;100.00
44144;BME280;68165;51.920;4.492;2023-03-14T09:57:56;66881.97;;;9.24;100.00
44144;BME280;68165;51.920;4.492;2023-03-14T10:00:26;66879.56;;;9.19;100.00
44144;BME280;68165;51.920;4.492;2023-03-14T10:03:24;66886.81;;;9.26;100.00
44144;BME280;68165;51.920;4.492;2023-03-14T10:05:50;66882.94;;;9.22;100.00
44144;BME280;68165;51.920;4.492;2023-03-14T10:08:15;66908.72;;;9.48;100.00
44144;BME280;68165;51.920;4.492;2023-03-14T10:10:41;66944.22;;;9.78;100.00
44144;BME280;68165;51.920;4.492;2023-03-14T10:15:35;67020.84;;;10.43;100.00
44144;BME280;68165;51.920;4.492;2023-03-14T10:18:03;67034.59;;;10.60;100.00
44144;BME280;68165;51.920;4.492;2023-03-14T10:20:31;67042.56;;;10.70;99.94
44144;BME280;68165;51.920;4.492;2023-03-14T10:23:24;67047.97;;;10.72;99.33
44144;BME280;68165;51.920;4.492;2023-03-14T10:28:30;66995.69;;;10.27;98.72
44144;BME280;68165;51.920;4.492;2023-03-14T10:30:57;67006.31;;;10.37;98.34
44144;BME280;68165;51.920;4.492;2023-03-14T10:33:28;67023.03;;;10.52;98.20
44144;BME280;68165;51.920;4.492;2023-03-14T10:36:03;67042.00;;;10.69;97.39
44144;BME280;68165;51.920;4.492;2023-03-14T10:38:35;67053.53;;;10.77;97.17
44144;BME280;68165;51.920;4.492;2023-03-14T10:41:03;67049.81;;;10.76;96.84
44144;BME280;68165;51.920;4.492;2023-03-14T10:43:40;67043.34;;;10.66;95.07
44144;BME280;68165;51.920;4.492;2023-03-14T10:46:09;67046.28;;;10.71;94.27
44144;BME280;68165;51.920;4.492;2023-03-14T10:48:38;67059.84;;;10.85;92.94
44144;BME280;68165;51.920;4.492;2023-03-14T10:51:22;67077.16;;;11.01;91.46
44144;BME280;68165;51.920;4.492;2023-03-14T10:54:00;67123.13;;;11.38;89.38
44144;BME280;68165;51.920;4.492;2023-03-14T10:56:28;67104.50;;;11.26;89.04
44144;BME280;68165;51.920;4.492;2023-03-14T10:58:59;67110.47;;;11.29;88.36
44144;BME280;68165;51.920;4.492;2023-03-14T11:01:57;67121.78;;;11.41;85.44
44144;BME280;68165;51.920;4.492;2023-03-14T11:07:27;67124.97;;;11.42;83.23
44144;BME280;68165;51.920;4.492;2023-03-14T11:10:23;67136.31;;;11.55;82.71
44144;BME280;68165;51.920;4.492;2023-03-14T11:16:01;67132.22;;;11.49;81.25
44144;BME280;68165;51.920;4.492;2023-03-14T11:21:20;67141.72;;;11.57;81.65
44144;BME280;68165;51.920;4.492;2023-03-14T11:29:26;67200.34;;;12.10;77.26
44144;BME280;68165;51.920;4.492;2023-03-14T11:32:02;67213.75;;;12.22;74.75
44144;BME280;68165;51.920;4.492;2023-03-14T11:34:47;67217.28;;;12.28;73.36
44144;BME280;68165;51.920;4.492;2023-03-14T11:37:23;67222.88;;;12.33;69.76
44144;BME280;68165;51.920;4.492;2023-03-14T11:40:13;67229.59;;;12.39;66.42
44144;BME280;68165;51.920;4.492;2023-03-14T11:42:42;67229.03;;;12.39;65.18
44144;BME280;68165;51.920;4.492;2023-03-14T11:45:32;67240.59;;;12.47;62.76
44144;BME280;68165;51.920;4.492;2023-03-14T11:48:13;67225.09;;;12.35;60.79
44144;BME280;68165;51.920;4.492;2023-03-14T11:50:42;67223.28;;;12.31;59.86
44144;BME280;68165;51.920;4.492;2023-03-14T11:53:19;67240.03;;;12.46;58.34
44144;BME280;68165;51.920;4.492;2023-03-14T11:55:47;67258.06;;;12.65;57.17
44144;BME280;68165;51.920;4.492;2023-03-14T11:58:26;67274.66;;;12.78;55.91
44144;BME280;68165;51.920;4.492;2023-03-14T12:00:54;67269.47;;;12.71;54.85
44144;BME280;68165;51.920;4.492;2023-03-14T12:06:49;67299.44;;;13.02;56.66
44144;BME280;68165;51.920;4.492;2023-03-14T12:09:16;67296.63;;;13.00;55.46
44144;BME280;68165;51.920;4.492;2023-03-14T12:11:52;67305.38;;;13.13;55.36
44144;BME280;68165;51.920;4.492;2023-03-14T12:14:28;67330.38;;;13.33;54.94
44144;BME280;68165;51.920;4.492;2023-03-14T12:16:55;67376.59;;;13.72;52.59
44144;BME280;68165;51.920;4.492;2023-03-14T12:21:55;67358.16;;;13.56;50.88
44144;BME280;68165;51.920;4.492;2023-03-14T12:24:25;67370.44;;;13.67;50.34
44144;BME280;68165;51.920;4.492;2023-03-14T12:27:00;67390.97;;;13.83;49.80
44144;BME280;68165;51.920;4.492;2023-03-14T12:29:26;67393.78;;;13.85;50.02
44144;BME280;68165;51.920;4.492;2023-03-14T12:37:04;67379.25;;;13.72;48.22
44144;BME280;68165;51.920;4.492;2023-03-14T12:39:47;67358.16;;;13.56;46.80
44144;BME280;68165;51.920;4.492;2023-03-14T12:42:38;67352.16;;;13.53;47.18
44144;BME280;68165;51.920;4.492;2023-03-14T12:50:12;67298.88;;;13.02;45.63
44144;BME280;68165;51.920;4.492;2023-03-14T12:55:27;67261.09;;;12.63;47.78
44144;BME280;68165;51.920;4.492;2023-03-14T12:58:32;67266.47;;;12.73;48.79
44144;BME280;68165;51.920;4.492;2023-03-14T13:01:03;67267.00;;;12.73;49.04
44144;BME280;68165;51.920;4.492;2023-03-14T13:04:01;67303.56;;;13.01;49.79
44144;BME280;68165;51.920;4.492;2023-03-14T13:06:54;67281.94;;;12.84;47.02
44144;BME280;68165;51.920;4.492;2023-03-14T13:12:03;67221.75;;;12.32;44.98
44144;BME280;68165;51.920;4.492;2023-03-14T13:14:34;67213.00;;;12.26;45.27
44144;BME280;68165;51.920;4.492;2023-03-14T13:17:01;67206.69;;;12.18;47.21
44144;BME280;68165;51.920;4.492;2023-03-14T13:19:29;67196.97;;;12.14;46.62
44144;BME280;68165;51.920;4.492;2023-03-14T13:22:03;67190.31;;;12.01;45.59
44144;BME280;68165;51.920;4.492;2023-03-14T13:24:29;67179.72;;;11.92;45.11
44144;BME280;68165;51.920;4.492;2023-03-14T13:26:58;67175.22;;;11.88;44.76
44144;BME280;68165;51.920;4.492;2023-03-14T13:29:26;67181.00;;;11.95;45.84
44144;BME280;68165;51.920;4.492;2023-03-14T13:31:56;67195.50;;;12.08;46.69
44144;BME280;68165;51.920;4.492;2023-03-14T13:34:28;67220.88;;;12.26;47.43
44144;BME280;68165;51.920;4.492;2023-03-14T13:36:55;67225.28;;;12.38;46.83
44144;BME280;68165;51.920;4.492;2023-03-14T13:39:24;67247.47;;;12.55;46.70
44144;BME280;68165;51.920;4.492;2023-03-14T13:41:57;67264.44;;;12.66;46.90
44144;BME280;68165;51.920;4.492;2023-03-14T13:46:59;67271.88;;;12.75;45.11
44144;BME280;68165;51.920;4.492;2023-03-14T13:49:26;67280.25;;;12.83;44.88
44144;BME280;68165;51.920;4.492;2023-03-14T13:51:54;67283.63;;;12.86;45.27
44144;BME280;68165;51.920;4.492;2023-03-14T13:54:21;67279.88;;;12.85;44.37
44144;BME280;68165;51.920;4.492;2023-03-14T13:56:47;67272.59;;;12.78;44.76